createdAt,value
2023-02-19T00:00:10.045Z,55.75
2023-02-19T00:01:27.371Z,55.91
2023-02-19T00:03:54.514Z,55.79
2023-02-19T00:05:04.793Z,55.70
2023-02-19T00:06:14.897Z,55.94
2023-02-19T00:07:24.588Z,56.07
2023-02-19T00:08:35.582Z,56.00
2023-02-19T00:09:45.152Z,56.13
2023-02-19T00:12:09.032Z,55.94
2023-02-19T00:14:33.399Z,56.07
2023-02-19T00:15:42.093Z,56.17
2023-02-19T00:16:50.778Z,56.09
2023-02-19T00:18:00.290Z,56.23
2023-02-19T00:20:28.875Z,56.31
2023-02-19T00:22:53.122Z,56.08
2023-02-19T00:24:04.912Z,56.10
2023-02-19T00:26:29.896Z,56.30
2023-02-19T00:27:39.681Z,55.94
2023-02-19T00:28:50.855Z,55.90
2023-02-19T00:30:00.486Z,55.92
2023-02-19T00:32:33.746Z,56.09
2023-02-19T00:33:42.883Z,55.95
2023-02-19T00:34:51.862Z,55.97
2023-02-19T00:36:05.353Z,56.05
2023-02-19T00:38:31.630Z,56.15
2023-02-19T00:39:41.195Z,56.31
2023-02-19T00:42:05.940Z,56.18
2023-02-19T00:43:17.218Z,56.35
2023-02-19T00:44:25.770Z,56.32
2023-02-19T00:45:35.092Z,56.43
2023-02-19T00:46:46.149Z,56.39
2023-02-19T00:47:54.452Z,56.34
2023-02-19T00:50:19.839Z,56.27
2023-02-19T00:51:32.060Z,56.58
2023-02-19T00:53:55.856Z,56.61
2023-02-19T00:56:21.520Z,56.63
2023-02-19T00:57:31.203Z,56.55
2023-02-19T00:58:41.674Z,56.49
2023-02-19T00:59:50.618Z,56.19
2023-02-19T01:01:00.361Z,56.26
2023-02-19T01:02:09.476Z,56.26
2023-02-19T01:03:19.208Z,56.06
2023-02-19T01:05:45.197Z,56.13
2023-02-19T01:08:08.402Z,56.42
2023-02-19T01:10:32.868Z,56.39
2023-02-19T01:11:42.087Z,56.39
2023-02-19T01:12:51.820Z,56.32
2023-02-19T01:14:03.073Z,56.53
2023-02-19T01:15:12.619Z,56.54
2023-02-19T01:16:26.891Z,56.29
2023-02-19T01:17:37.018Z,56.30
2023-02-19T01:20:02.399Z,56.59
2023-02-19T01:22:31.058Z,56.75
2023-02-19T01:23:41.330Z,56.72
2023-02-19T01:24:50.748Z,56.89
2023-02-19T01:25:59.702Z,56.84
2023-02-19T01:27:09.030Z,56.90
2023-02-19T01:28:18.562Z,56.69
2023-02-19T01:29:27.622Z,56.72
2023-02-19T01:30:38.973Z,56.61
2023-02-19T01:33:06.186Z,56.88
2023-02-19T01:35:50.254Z,56.74
2023-02-19T01:37:00.153Z,56.90
2023-02-19T01:38:09.694Z,56.54
2023-02-19T01:40:35.822Z,56.45
2023-02-19T01:41:46.279Z,56.50
2023-02-19T01:42:55.291Z,56.44
2023-02-19T01:44:12.909Z,56.39
2023-02-19T01:45:25.761Z,56.31
2023-02-19T01:48:10.279Z,56.63
2023-02-19T01:52:13.173Z,56.82
2023-02-19T01:53:25.716Z,56.72
2023-02-19T01:54:38.506Z,56.70
2023-02-19T01:55:51.177Z,56.83
2023-02-19T01:57:04.618Z,56.90
2023-02-19T01:58:17.105Z,56.98
2023-02-19T02:00:41.693Z,57.09
2023-02-19T02:01:51.833Z,56.97
2023-02-19T02:03:02.397Z,57.22
2023-02-19T02:04:13.319Z,56.99
2023-02-19T02:05:52.434Z,56.86
2023-02-19T02:07:07.115Z,57.05
2023-02-19T02:08:37.222Z,57.15
2023-02-19T02:10:05.491Z,57.11
2023-02-19T02:11:15.315Z,57.07
2023-02-19T02:12:24.249Z,56.79
2023-02-19T02:13:35.875Z,56.80
2023-02-19T02:14:48.850Z,56.72
2023-02-19T02:17:33.918Z,56.84
2023-02-19T02:19:08.639Z,56.83
2023-02-19T02:20:39.041Z,56.89
2023-02-19T02:22:01.115Z,56.86
2023-02-19T02:23:37.663Z,56.80
2023-02-19T02:25:12.441Z,56.77
2023-02-19T02:26:43.176Z,56.85
2023-02-19T02:30:01.412Z,57.15
2023-02-19T02:32:54.076Z,57.10
2023-02-19T02:35:39.447Z,57.38
2023-02-19T02:38:13.537Z,57.36
2023-02-19T02:40:44.749Z,57.30
2023-02-19T02:42:15.911Z,57.17
2023-02-19T02:43:26.416Z,57.16
2023-02-19T02:45:54.149Z,57.56
2023-02-19T02:47:06.918Z,57.62
2023-02-19T02:49:48.516Z,57.26
2023-02-19T02:51:21.817Z,57.38
2023-02-19T02:52:57.004Z,57.26
2023-02-19T02:54:28.864Z,57.15
2023-02-19T02:55:42.265Z,57.35
2023-02-19T02:56:54.877Z,57.64
2023-02-19T02:58:05.885Z,57.61
2023-02-19T03:00:54.233Z,57.52
2023-02-19T03:02:15.114Z,57.46
2023-02-19T03:03:30.020Z,57.46
2023-02-19T03:06:43.010Z,57.48
2023-02-19T03:08:12.024Z,57.61
2023-02-19T03:09:29.382Z,57.41
2023-02-19T03:12:39.372Z,57.68
2023-02-19T03:14:11.034Z,57.69
2023-02-19T03:15:40.621Z,57.63
2023-02-19T03:18:44.230Z,57.93
2023-02-19T03:19:57.370Z,57.93
2023-02-19T03:21:07.812Z,57.87
2023-02-19T03:22:22.504Z,57.96
2023-02-19T03:23:51.597Z,58.00
2023-02-19T03:25:24.097Z,58.26
2023-02-19T03:26:34.688Z,58.08
2023-02-19T03:27:46.358Z,57.98
2023-02-19T03:29:16.331Z,58.17
2023-02-19T03:32:04.394Z,58.33
2023-02-19T03:33:17.911Z,58.44
2023-02-19T03:35:51.379Z,58.52
2023-02-19T03:38:42.918Z,58.91
2023-02-19T03:39:54.572Z,59.02
2023-02-19T03:42:46.114Z,59.20
2023-02-19T03:44:10.437Z,59.32
2023-02-19T03:47:14.093Z,59.14
2023-02-19T03:48:39.819Z,59.14
2023-02-19T03:51:12.717Z,59.23
2023-02-19T03:52:47.117Z,59.23
2023-02-19T03:57:06.785Z,59.31
2023-02-19T03:59:46.916Z,59.13
2023-02-19T04:01:09.742Z,58.87
2023-02-19T04:03:56.182Z,58.66
2023-02-19T04:05:16.477Z,58.76
2023-02-19T04:07:51.541Z,58.62
2023-02-19T04:09:06.979Z,58.69
2023-02-19T04:11:41.251Z,58.49
2023-02-19T04:14:29.632Z,58.61
2023-02-19T04:15:42.425Z,58.57
2023-02-19T04:18:16.625Z,58.83
2023-02-19T04:19:29.467Z,58.96
2023-02-19T04:20:44.218Z,59.04
2023-02-19T04:23:12.075Z,59.45
2023-02-19T04:25:49.860Z,59.50
2023-02-19T04:27:00.149Z,59.58
2023-02-19T04:28:10.131Z,59.80
2023-02-19T04:29:19.789Z,59.92
2023-02-19T04:31:43.954Z,59.93
2023-02-19T04:32:54.040Z,59.93
2023-02-19T04:34:04.338Z,59.88
2023-02-19T04:35:13.442Z,59.78
2023-02-19T04:36:23.731Z,59.60
2023-02-19T04:37:33.452Z,59.86
2023-02-19T04:38:43.154Z,59.72
2023-02-19T04:39:53.019Z,59.94
2023-02-19T04:41:03.273Z,59.55
2023-02-19T04:42:13.000Z,59.53
2023-02-19T04:43:22.647Z,59.61
2023-02-19T04:44:33.625Z,59.68
2023-02-19T04:45:43.782Z,59.87
2023-02-19T04:46:53.474Z,59.53
2023-02-19T04:49:17.866Z,59.60
2023-02-19T04:51:43.076Z,59.77
2023-02-19T04:52:53.536Z,59.89
2023-02-19T04:54:02.843Z,60.10
2023-02-19T04:55:11.939Z,60.01
2023-02-19T04:56:21.016Z,60.13
2023-02-19T04:58:45.779Z,60.03
2023-02-19T04:59:54.772Z,59.83
2023-02-19T05:01:05.364Z,59.94
2023-02-19T05:02:14.362Z,59.80
2023-02-19T05:03:23.897Z,59.60
2023-02-19T05:04:34.608Z,59.56
2023-02-19T05:05:43.304Z,59.72
2023-02-19T05:06:53.420Z,59.58
2023-02-19T05:09:17.546Z,59.33
2023-02-19T05:10:27.742Z,59.36
2023-02-19T05:12:57.938Z,59.23
2023-02-19T05:14:08.031Z,59.37
2023-02-19T05:15:17.096Z,59.30
2023-02-19T05:16:26.840Z,59.59
2023-02-19T05:17:37.560Z,59.65
2023-02-19T05:18:46.940Z,59.66
2023-02-19T05:19:58.435Z,59.19
2023-02-19T05:21:09.184Z,59.73
2023-02-19T05:22:18.863Z,59.61
2023-02-19T05:23:29.141Z,59.40
2023-02-19T05:24:38.223Z,58.58
2023-02-19T05:25:47.392Z,58.25
2023-02-19T05:26:57.008Z,58.00
2023-02-19T05:28:18.412Z,56.92
2023-02-19T05:30:46.703Z,56.79
2023-02-19T05:31:56.640Z,56.09
2023-02-19T05:34:20.490Z,54.90
2023-02-19T05:35:30.863Z,54.25
2023-02-19T05:36:40.032Z,53.96
2023-02-19T05:37:48.527Z,53.76
2023-02-19T05:40:20.130Z,51.85
2023-02-19T05:42:45.026Z,51.08
2023-02-19T05:43:55.275Z,51.02
2023-02-19T05:46:29.249Z,50.17
2023-02-19T05:47:38.939Z,49.66
2023-02-19T05:48:48.983Z,48.55
2023-02-19T05:51:17.410Z,46.84
2023-02-19T05:52:26.431Z,48.24
2023-02-19T05:53:35.860Z,45.52
2023-02-19T05:54:45.438Z,45.73
2023-02-19T05:55:55.655Z,45.55
2023-02-19T05:57:05.488Z,45.07
2023-02-19T05:59:29.776Z,44.15
2023-02-19T06:00:39.727Z,43.26
2023-02-19T06:01:51.584Z,44.08
2023-02-19T06:03:02.090Z,44.73
2023-02-19T06:05:27.507Z,43.98
2023-02-19T06:06:38.129Z,43.37
2023-02-19T06:09:01.716Z,44.26
2023-02-19T06:10:13.684Z,44.04
2023-02-19T06:11:24.419Z,43.55
2023-02-19T06:12:34.242Z,44.21
2023-02-19T06:13:44.419Z,44.10
2023-02-19T06:14:53.556Z,44.16
2023-02-19T06:16:07.543Z,43.99
2023-02-19T06:17:16.539Z,44.51
2023-02-19T06:18:26.425Z,44.41
2023-02-19T06:19:35.073Z,44.31
2023-02-19T06:20:44.975Z,44.81
2023-02-19T06:23:08.449Z,45.01
2023-02-19T06:24:18.067Z,44.98
2023-02-19T06:25:26.650Z,45.06
2023-02-19T06:26:36.605Z,45.22
2023-02-19T06:27:45.680Z,45.74
2023-02-19T06:28:54.707Z,45.16
2023-02-19T06:30:04.011Z,45.72
2023-02-19T06:31:13.796Z,46.24
2023-02-19T06:32:22.801Z,46.39
2023-02-19T06:33:32.602Z,46.38
2023-02-19T06:34:42.194Z,46.14
2023-02-19T06:35:50.711Z,46.40
2023-02-19T06:37:00.131Z,46.54
2023-02-19T06:38:09.641Z,46.97
2023-02-19T06:39:18.830Z,47.01
2023-02-19T06:40:29.589Z,47.28
2023-02-19T06:41:39.150Z,47.24
2023-02-19T06:42:48.136Z,47.64
2023-02-19T06:43:58.023Z,47.77
2023-02-19T06:46:23.638Z,47.94
2023-02-19T06:47:34.405Z,47.75
2023-02-19T06:48:44.461Z,47.85
2023-02-19T06:49:53.625Z,48.10
2023-02-19T06:51:03.365Z,48.58
2023-02-19T06:53:28.246Z,48.31
2023-02-19T06:54:37.154Z,48.85
2023-02-19T06:56:00.432Z,49.23
2023-02-19T06:57:09.368Z,49.68
2023-02-19T06:58:20.732Z,49.32
2023-02-19T07:00:44.431Z,49.51
2023-02-19T07:01:54.174Z,49.56
2023-02-19T07:03:05.497Z,50.05
2023-02-19T07:04:15.373Z,50.25
2023-02-19T07:05:25.140Z,50.31
2023-02-19T07:06:35.228Z,50.23
2023-02-19T07:07:46.148Z,50.33
2023-02-19T07:08:56.374Z,50.53
2023-02-19T07:10:05.897Z,50.38
2023-02-19T07:11:14.817Z,50.70
2023-02-19T07:12:23.347Z,50.85
2023-02-19T07:13:32.227Z,50.70
2023-02-19T07:14:41.706Z,51.08
2023-02-19T07:15:52.188Z,51.12
2023-02-19T07:17:03.529Z,51.68
2023-02-19T07:18:13.180Z,51.83
2023-02-19T07:19:21.688Z,52.10
2023-02-19T07:20:31.399Z,52.02
2023-02-19T07:21:41.944Z,52.23
2023-02-19T07:22:51.672Z,52.20
2023-02-19T07:24:01.277Z,52.21
2023-02-19T07:25:09.815Z,52.01
2023-02-19T07:26:20.738Z,52.31
2023-02-19T07:27:29.416Z,52.24
2023-02-19T07:28:41.899Z,52.59
2023-02-19T07:29:51.025Z,52.62
2023-02-19T07:31:01.504Z,52.73
2023-02-19T07:32:12.065Z,52.82
2023-02-19T07:33:20.703Z,52.77
2023-02-19T07:34:29.506Z,52.82
2023-02-19T07:35:47.161Z,53.09
2023-02-19T07:36:55.946Z,52.90
2023-02-19T07:39:19.415Z,53.26
2023-02-19T07:40:29.607Z,53.48
2023-02-19T07:41:39.019Z,53.61
2023-02-19T07:42:49.577Z,53.47
2023-02-19T07:43:59.916Z,53.36
2023-02-19T07:46:25.327Z,53.76
2023-02-19T07:47:33.962Z,53.44
2023-02-19T07:48:44.960Z,53.73
2023-02-19T07:49:53.611Z,53.57
2023-02-19T07:51:05.690Z,53.15
2023-02-19T07:52:14.359Z,53.35
2023-02-19T07:53:24.173Z,53.60
2023-02-19T07:54:34.187Z,53.96
2023-02-19T07:55:42.952Z,54.11
2023-02-19T07:58:06.939Z,54.11
2023-02-19T07:59:18.698Z,54.01
2023-02-19T08:00:28.172Z,53.66
2023-02-19T08:01:55.400Z,53.67
2023-02-19T08:03:04.413Z,53.86
2023-02-19T08:04:15.250Z,54.16
2023-02-19T08:05:23.681Z,53.90
2023-02-19T08:06:34.491Z,54.11
2023-02-19T08:07:44.317Z,54.20
2023-02-19T08:08:54.677Z,54.29
2023-02-19T08:10:24.678Z,54.09
2023-02-19T08:11:52.068Z,54.22
2023-02-19T08:14:27.684Z,54.44
2023-02-19T08:15:37.306Z,54.27
2023-02-19T08:18:08.917Z,54.50
2023-02-19T08:19:18.540Z,54.58
2023-02-19T08:20:27.158Z,54.59
2023-02-19T08:21:36.199Z,54.64
2023-02-19T08:22:45.259Z,54.50
2023-02-19T08:23:54.581Z,54.43
2023-02-19T08:25:03.852Z,54.62
2023-02-19T08:26:13.460Z,54.77
2023-02-19T08:27:24.116Z,54.69
2023-02-19T08:28:32.983Z,54.85
2023-02-19T08:29:41.514Z,54.99
2023-02-19T08:30:53.449Z,55.10
2023-02-19T08:32:02.127Z,55.30
2023-02-19T08:33:17.024Z,55.29
2023-02-19T08:34:25.635Z,55.32
2023-02-19T08:35:36.010Z,55.29
2023-02-19T08:36:45.444Z,55.34
2023-02-19T08:39:14.597Z,55.71
2023-02-19T08:41:41.874Z,55.31
2023-02-19T08:42:51.255Z,55.49
2023-02-19T08:45:42.239Z,56.03
2023-02-19T08:46:59.011Z,55.71
2023-02-19T08:48:08.359Z,55.15
2023-02-19T08:49:18.061Z,54.49
2023-02-19T08:50:27.603Z,54.24
2023-02-19T08:51:36.290Z,54.11
2023-02-19T08:52:44.932Z,53.67
2023-02-19T08:53:53.503Z,53.92
2023-02-19T08:55:04.635Z,54.06
2023-02-19T08:56:16.905Z,53.99
2023-02-19T08:57:26.135Z,53.96
2023-02-19T08:59:52.456Z,53.98
2023-02-19T09:01:02.047Z,53.90
2023-02-19T09:02:12.271Z,53.47
2023-02-19T09:03:22.025Z,53.48
2023-02-19T09:04:30.680Z,53.17
2023-02-19T09:05:39.558Z,53.34
2023-02-19T09:06:48.738Z,53.17
2023-02-19T09:07:57.848Z,53.09
2023-02-19T09:09:07.409Z,52.70
2023-02-19T09:10:17.264Z,52.88
2023-02-19T09:11:26.228Z,53.04
2023-02-19T09:12:34.765Z,53.00
2023-02-19T09:15:04.363Z,53.59
2023-02-19T09:16:14.313Z,53.62
2023-02-19T09:17:23.969Z,53.55
2023-02-19T09:24:31.700Z,53.55
2023-02-19T09:25:40.310Z,54.00
2023-02-19T09:28:07.313Z,53.67
2023-02-19T09:29:16.377Z,53.30
2023-02-19T09:30:26.792Z,53.41
2023-02-19T09:31:35.665Z,53.39
2023-02-19T09:32:44.617Z,53.51
2023-02-19T09:33:54.014Z,53.58
2023-02-19T09:35:03.183Z,53.41
2023-02-19T09:36:14.139Z,53.59
2023-02-19T09:38:46.221Z,53.10
2023-02-19T09:39:56.573Z,52.78
2023-02-19T09:42:30.989Z,53.01
2023-02-19T09:43:40.162Z,52.92
2023-02-19T09:44:52.275Z,53.24
2023-02-19T09:46:05.111Z,52.92
2023-02-19T09:47:26.560Z,52.99
2023-02-19T09:48:35.301Z,53.37
2023-02-19T09:49:52.129Z,53.04
2023-02-19T09:51:02.933Z,52.89
2023-02-19T09:52:27.162Z,53.09
2023-02-19T09:53:40.127Z,53.15
2023-02-19T09:54:49.353Z,53.12
2023-02-19T09:55:59.388Z,53.33
2023-02-19T09:57:21.743Z,53.31
2023-02-19T09:58:35.161Z,53.59
2023-02-19T09:59:50.552Z,52.93
2023-02-19T10:02:26.147Z,53.26
2023-02-19T10:03:41.463Z,53.18
2023-02-19T10:04:51.999Z,53.52
2023-02-19T10:06:09.421Z,53.64
2023-02-19T10:07:26.570Z,53.69
2023-02-19T10:09:59.221Z,53.38
2023-02-19T10:11:13.804Z,53.41
2023-02-19T10:13:53.346Z,53.60
2023-02-19T10:16:30.074Z,53.47
2023-02-19T10:17:38.737Z,53.41
2023-02-19T10:18:47.890Z,53.42
2023-02-19T10:19:57.729Z,53.13
2023-02-19T10:21:07.765Z,53.40
2023-02-19T10:22:17.431Z,53.23
2023-02-19T10:23:26.578Z,53.41
2023-02-19T10:24:38.435Z,53.34
2023-02-19T10:25:56.575Z,53.58
2023-02-19T10:27:09.432Z,53.61
2023-02-19T10:29:37.078Z,53.66
2023-02-19T10:30:50.190Z,53.64
2023-02-19T10:35:12.905Z,53.29
2023-02-19T10:37:47.650Z,53.86
2023-02-19T10:38:58.452Z,53.69
2023-02-19T10:41:41.985Z,53.50
2023-02-19T10:43:03.828Z,53.15
2023-02-19T10:44:19.338Z,53.49
2023-02-19T10:45:35.351Z,53.62
2023-02-19T10:48:04.612Z,53.48
2023-02-19T10:50:43.236Z,52.85
2023-02-19T10:54:36.550Z,52.81
2023-02-19T10:55:47.126Z,52.82
2023-02-19T10:58:34.852Z,52.50
2023-02-19T11:01:21.158Z,52.44
2023-02-19T11:02:31.599Z,52.22
2023-02-19T11:03:41.492Z,52.28
2023-02-19T11:06:27.322Z,52.17
2023-02-19T11:07:38.045Z,52.16
2023-02-19T11:08:53.425Z,52.05
2023-02-19T11:10:03.909Z,51.77
2023-02-19T11:11:36.774Z,51.72
2023-02-19T11:12:52.486Z,51.87
2023-02-19T11:15:32.152Z,51.14
2023-02-19T11:16:51.387Z,51.26
2023-02-19T11:18:16.711Z,51.02
2023-02-19T11:19:35.919Z,50.99
2023-02-19T11:21:00.403Z,50.80
2023-02-19T11:22:34.721Z,50.63
2023-02-19T11:23:46.953Z,50.96
2023-02-19T11:24:59.542Z,51.35
2023-02-19T11:27:33.773Z,51.09
2023-02-19T11:28:43.930Z,51.08
2023-02-19T11:31:20.443Z,50.65
2023-02-19T11:32:30.390Z,50.99
2023-02-19T11:33:54.727Z,50.85
2023-02-19T11:35:23.323Z,50.90
2023-02-19T11:36:34.741Z,51.06
2023-02-19T11:37:56.447Z,50.70
2023-02-19T11:40:52.362Z,50.91
2023-02-19T11:42:30.919Z,51.08
2023-02-19T11:43:44.272Z,51.18
2023-02-19T11:44:56.767Z,51.40
2023-02-19T11:46:43.706Z,51.00
2023-02-19T11:48:08.294Z,50.82
2023-02-19T11:49:29.656Z,51.07
2023-02-19T11:52:35.469Z,51.08
2023-02-19T11:54:10.890Z,51.29
2023-02-19T11:55:54.581Z,51.21
2023-02-19T12:01:55.827Z,51.36
2023-02-19T12:03:24.905Z,51.52
2023-02-19T12:06:18.404Z,51.42
2023-02-19T12:09:15.213Z,51.44
2023-02-19T12:12:30.167Z,51.20
2023-02-19T12:13:42.460Z,51.24
2023-02-19T12:15:01.753Z,51.15
2023-02-19T12:17:51.085Z,51.18
2023-02-19T12:19:22.752Z,51.04
2023-02-19T12:20:55.448Z,50.85
2023-02-19T12:22:13.608Z,50.88
2023-02-19T12:23:59.254Z,50.61
2023-02-19T12:25:34.026Z,50.51
2023-02-19T12:28:28.485Z,50.43
2023-02-19T12:29:57.504Z,50.59
2023-02-19T12:31:14.125Z,50.42
2023-02-19T12:32:46.142Z,50.54
2023-02-19T12:34:17.722Z,50.12
2023-02-19T12:35:42.386Z,50.27
2023-02-19T12:38:55.382Z,49.57
2023-02-19T12:40:35.079Z,49.64
2023-02-19T12:43:23.172Z,49.35
2023-02-19T12:45:00.929Z,49.66
2023-02-19T12:46:16.506Z,49.81
2023-02-19T12:47:33.098Z,49.75
2023-02-19T12:48:56.909Z,49.79
2023-02-19T12:50:18.651Z,49.90
2023-02-19T12:51:33.927Z,50.07
2023-02-19T12:52:46.664Z,50.30
2023-02-19T12:55:41.963Z,50.65
2023-02-19T12:57:07.740Z,50.68
2023-02-19T12:58:32.293Z,50.66
2023-02-19T13:01:08.017Z,51.00
2023-02-19T13:02:25.067Z,50.80
2023-02-19T13:03:37.769Z,50.95
2023-02-19T13:05:15.348Z,50.76
2023-02-19T13:06:37.778Z,50.93
2023-02-19T13:09:21.704Z,50.80
2023-02-19T13:12:26.503Z,50.34
2023-02-19T13:13:50.610Z,50.50
2023-02-19T13:15:17.953Z,50.49
2023-02-19T13:16:31.863Z,50.28
2023-02-19T13:17:47.254Z,50.11
2023-02-19T13:19:04.741Z,50.14
2023-02-19T13:22:05.718Z,50.06
2023-02-19T13:23:45.538Z,49.88
2023-02-19T13:24:55.257Z,49.96
2023-02-19T13:26:27.172Z,50.26
2023-02-19T13:29:16.123Z,49.98
2023-02-19T13:32:30.566Z,49.71
2023-02-19T13:35:23.837Z,50.24
2023-02-19T13:36:35.725Z,50.40
2023-02-19T13:37:45.173Z,50.21
2023-02-19T13:38:56.693Z,50.18
2023-02-19T13:40:29.726Z,49.92
2023-02-19T13:44:40.517Z,49.52
2023-02-19T13:45:54.062Z,49.41
2023-02-19T13:47:05.353Z,49.21
2023-02-19T13:49:51.223Z,49.79
2023-02-19T13:52:38.916Z,49.95
2023-02-19T13:53:52.812Z,49.92
2023-02-19T13:55:26.066Z,50.14
2023-02-19T13:56:37.476Z,50.19
2023-02-19T13:57:46.581Z,50.09
2023-02-19T13:59:16.921Z,50.24
2023-02-19T14:00:50.476Z,50.03
2023-02-19T14:02:03.070Z,49.61
2023-02-19T14:04:55.561Z,49.75
2023-02-19T14:06:06.006Z,49.88
2023-02-19T14:07:19.104Z,49.34
2023-02-19T14:08:48.327Z,49.30
2023-02-19T14:11:14.469Z,49.14
2023-02-19T14:13:54.704Z,49.09
2023-02-19T14:16:42.908Z,49.30
2023-02-19T14:17:53.478Z,49.22
2023-02-19T14:19:03.210Z,48.84
2023-02-19T14:20:19.792Z,48.62
2023-02-19T14:21:37.742Z,48.67
2023-02-19T14:24:13.658Z,48.87
2023-02-19T14:25:29.450Z,48.36
2023-02-19T14:26:40.180Z,48.59
2023-02-19T14:27:51.696Z,48.35
2023-02-19T14:29:01.540Z,48.49
2023-02-19T14:30:13.566Z,48.43
2023-02-19T14:31:32.777Z,48.41
2023-02-19T14:32:45.137Z,48.65
2023-02-19T14:33:57.526Z,48.46
2023-02-19T14:35:06.517Z,48.57
2023-02-19T14:36:26.664Z,48.40
2023-02-19T14:37:35.446Z,48.38
2023-02-19T14:39:13.746Z,47.85
2023-02-19T14:41:45.820Z,48.07
2023-02-19T14:42:57.468Z,47.98
2023-02-19T14:44:10.844Z,47.75
2023-02-19T14:45:20.865Z,47.89
2023-02-19T14:46:33.271Z,48.01
2023-02-19T14:47:43.572Z,47.99
2023-02-19T14:48:53.365Z,48.06
2023-02-19T14:51:40.916Z,47.94
2023-02-19T14:52:52.933Z,47.74
2023-02-19T14:54:06.087Z,47.75
2023-02-19T14:55:22.345Z,47.92
2023-02-19T14:56:35.215Z,47.75
2023-02-19T14:57:47.011Z,47.86
2023-02-19T15:00:37.605Z,47.84
2023-02-19T15:01:46.899Z,47.83
2023-02-19T15:02:58.981Z,47.98
2023-02-19T15:05:29.432Z,48.07
2023-02-19T15:06:40.797Z,47.92
2023-02-19T15:07:51.010Z,47.82
2023-02-19T15:09:03.321Z,47.83
2023-02-19T15:10:14.848Z,47.71
2023-02-19T15:12:46.882Z,47.93
2023-02-19T15:15:24.888Z,48.15
2023-02-19T15:16:36.119Z,48.05
2023-02-19T15:17:46.066Z,48.06
2023-02-19T15:18:56.904Z,47.63
2023-02-19T15:20:07.346Z,47.69
2023-02-19T15:21:29.643Z,47.84
2023-02-19T15:22:42.293Z,47.90
2023-02-19T15:23:54.817Z,47.78
2023-02-19T15:25:05.790Z,47.98
2023-02-19T15:26:33.794Z,47.98
2023-02-19T15:27:43.454Z,47.98
2023-02-19T15:30:24.061Z,48.08
2023-02-19T15:31:33.206Z,48.14
2023-02-19T15:32:45.534Z,48.23
2023-02-19T15:33:55.069Z,48.31
2023-02-19T15:35:06.214Z,48.18
2023-02-19T15:36:19.390Z,48.24
2023-02-19T15:37:31.410Z,48.34
2023-02-19T15:38:40.182Z,48.35
2023-02-19T15:39:52.007Z,48.56
2023-02-19T15:41:01.577Z,48.45
2023-02-19T15:43:36.815Z,48.61
2023-02-19T15:44:54.961Z,48.55
2023-02-19T15:46:07.698Z,48.46
2023-02-19T15:48:49.938Z,48.62
2023-02-19T15:50:14.508Z,48.74
2023-02-19T15:52:51.868Z,48.76
2023-02-19T15:54:07.376Z,48.71
2023-02-19T15:56:52.651Z,48.75
2023-02-19T15:59:47.573Z,48.89
2023-02-19T16:01:09.320Z,48.82
2023-02-19T16:02:19.821Z,48.84
2023-02-19T16:03:30.865Z,48.83
2023-02-19T16:04:43.734Z,48.78
2023-02-19T16:06:15.949Z,48.82
2023-02-19T16:07:33.556Z,48.94
2023-02-19T16:09:04.063Z,49.04
2023-02-19T16:10:20.094Z,49.10
2023-02-19T16:11:40.954Z,49.31
2023-02-19T16:12:58.254Z,49.39
2023-02-19T16:14:36.913Z,49.36
2023-02-19T16:15:50.627Z,49.53
2023-02-19T16:17:12.756Z,49.30
2023-02-19T16:18:21.702Z,49.43
2023-02-19T16:19:35.021Z,49.63
2023-02-19T16:20:46.639Z,49.36
2023-02-19T16:21:56.487Z,49.31
2023-02-19T16:23:19.348Z,49.43
2023-02-19T16:24:31.791Z,49.37
2023-02-19T16:27:03.280Z,49.38
2023-02-19T16:29:33.167Z,49.21
2023-02-19T16:30:41.962Z,49.29
2023-02-19T16:31:57.109Z,49.10
2023-02-19T16:33:33.615Z,49.10
2023-02-19T16:34:51.116Z,49.11
2023-02-19T16:36:21.384Z,49.34
2023-02-19T16:37:38.233Z,49.19
2023-02-19T16:39:12.769Z,49.27
2023-02-19T16:40:29.144Z,49.08
2023-02-19T16:43:26.491Z,49.29
2023-02-19T16:44:35.886Z,49.42
2023-02-19T16:45:46.805Z,49.45
2023-02-19T16:46:58.096Z,49.56
2023-02-19T16:48:08.589Z,49.60
2023-02-19T16:49:17.980Z,49.63
2023-02-19T16:50:29.549Z,49.59
2023-02-19T16:51:38.174Z,49.70
2023-02-19T16:54:34.672Z,49.09
2023-02-19T16:55:44.448Z,49.14
2023-02-19T16:56:53.189Z,49.10
2023-02-19T16:58:01.832Z,49.06
2023-02-19T16:59:11.396Z,49.06
2023-02-19T17:01:39.625Z,49.00
2023-02-19T17:02:53.301Z,48.84
2023-02-19T17:04:08.683Z,48.85
2023-02-19T17:06:37.758Z,48.91
2023-02-19T17:07:50.335Z,48.90
2023-02-19T17:08:58.841Z,48.71
2023-02-19T17:10:10.397Z,48.87
2023-02-19T17:11:19.728Z,48.63
2023-02-19T17:12:28.304Z,48.97
2023-02-19T17:13:37.152Z,48.60
2023-02-19T17:14:45.805Z,48.61
2023-02-19T17:15:55.800Z,48.75
2023-02-19T17:17:05.025Z,48.42
2023-02-19T17:18:13.671Z,48.65
2023-02-19T17:19:22.351Z,48.51
2023-02-19T17:20:33.378Z,48.39
2023-02-19T17:21:41.762Z,48.76
2023-02-19T17:22:50.649Z,48.42
2023-02-19T17:23:59.780Z,48.45
2023-02-19T17:25:09.674Z,48.82
2023-02-19T17:27:38.431Z,48.73
2023-02-19T17:28:49.165Z,48.86
2023-02-19T17:31:22.066Z,49.15
2023-02-19T17:32:31.036Z,49.24
2023-02-19T17:33:42.703Z,49.40
2023-02-19T17:36:08.476Z,49.79
2023-02-19T17:37:17.220Z,49.98
2023-02-19T17:38:26.034Z,49.73
2023-02-19T17:40:50.112Z,49.94
2023-02-19T17:41:58.796Z,49.96
2023-02-19T17:43:08.585Z,49.84
2023-02-19T17:44:18.317Z,49.97
2023-02-19T17:45:27.548Z,50.03
2023-02-19T17:46:38.182Z,50.29
2023-02-19T17:47:48.642Z,50.15
2023-02-19T17:48:58.752Z,50.33
2023-02-19T17:50:17.440Z,50.30
2023-02-19T17:51:26.859Z,49.90
2023-02-19T17:53:56.110Z,50.04
2023-02-19T17:56:23.628Z,50.12
2023-02-19T17:57:33.713Z,50.25
2023-02-19T17:58:42.577Z,50.31
2023-02-19T17:59:51.506Z,50.22
2023-02-19T18:01:00.167Z,50.19
2023-02-19T18:02:09.621Z,49.96
2023-02-19T18:04:35.490Z,50.00
2023-02-19T18:05:44.408Z,49.93
2023-02-19T18:06:53.316Z,49.99
2023-02-19T18:08:01.936Z,49.84
2023-02-19T18:09:14.210Z,49.98
2023-02-19T18:10:24.802Z,49.86
2023-02-19T18:11:33.433Z,49.91
2023-02-19T18:12:42.381Z,49.56
2023-02-19T18:13:52.277Z,49.76
2023-02-19T18:15:01.116Z,49.91
2023-02-19T18:16:11.115Z,49.87
2023-02-19T18:17:20.881Z,49.72
2023-02-19T18:19:45.363Z,50.10
2023-02-19T18:20:55.436Z,50.67
2023-02-19T18:22:06.685Z,51.48
2023-02-19T18:23:16.287Z,52.16
2023-02-19T18:24:24.809Z,52.17
2023-02-19T18:25:33.407Z,52.69
2023-02-19T18:26:44.535Z,53.11
2023-02-19T18:27:55.078Z,53.28
2023-02-19T18:29:06.068Z,53.19
2023-02-19T18:30:19.317Z,53.07
2023-02-19T18:31:30.877Z,53.18
2023-02-19T18:32:41.382Z,53.32
2023-02-19T18:33:50.883Z,53.29
2023-02-19T18:35:00.529Z,53.27
2023-02-19T18:36:13.104Z,53.29
2023-02-19T18:37:23.755Z,53.37
2023-02-19T18:38:33.292Z,53.25
2023-02-19T18:39:44.255Z,53.12
2023-02-19T18:40:54.320Z,52.90
2023-02-19T18:43:18.596Z,53.00
2023-02-19T18:44:27.137Z,52.97
2023-02-19T18:45:37.051Z,53.02
2023-02-19T18:46:45.978Z,53.28
2023-02-19T18:47:54.598Z,53.57
2023-02-19T18:49:03.227Z,53.67
2023-02-19T18:50:13.835Z,53.77
2023-02-19T18:51:23.771Z,53.88
2023-02-19T18:52:32.640Z,53.94
2023-02-19T18:53:42.990Z,53.94
2023-02-19T18:56:15.570Z,54.42
2023-02-19T18:57:25.285Z,54.39
2023-02-19T18:59:49.837Z,54.29
2023-02-19T19:00:58.867Z,54.36
2023-02-19T19:02:09.038Z,54.45
2023-02-19T19:03:17.676Z,54.72
2023-02-19T19:04:26.312Z,54.99
2023-02-19T19:05:35.120Z,55.19
2023-02-19T19:06:44.954Z,55.15
2023-02-19T19:07:59.636Z,55.23
2023-02-19T19:09:09.309Z,55.29
2023-02-19T19:10:19.265Z,55.25
2023-02-19T19:11:28.234Z,55.44
2023-02-19T19:12:36.874Z,55.49
2023-02-19T19:13:47.054Z,55.41
2023-02-19T19:14:55.572Z,55.65
2023-02-19T19:16:04.914Z,56.04
2023-02-19T19:17:13.599Z,56.10
2023-02-19T19:18:22.510Z,56.06
2023-02-19T19:19:31.410Z,56.11
2023-02-19T19:20:40.915Z,56.31
2023-02-19T19:21:54.799Z,56.61
2023-02-19T19:23:05.005Z,56.91
2023-02-19T19:24:14.573Z,57.04
2023-02-19T19:25:24.157Z,56.97
2023-02-19T19:26:34.424Z,57.40
2023-02-19T19:27:43.443Z,58.17
2023-02-19T19:28:52.081Z,58.40
2023-02-19T19:30:01.344Z,58.70
2023-02-19T19:31:15.962Z,58.73
2023-02-19T19:32:26.170Z,58.91
2023-02-19T19:33:34.787Z,58.91
2023-02-19T19:34:48.732Z,59.11
2023-02-19T19:35:57.849Z,59.25
2023-02-19T19:37:09.905Z,59.44
2023-02-19T19:38:21.164Z,59.67